createdAt,value
2022-12-26T00:00:41.161Z,3.77
2022-12-26T00:03:08.092Z,3.93
2022-12-26T00:05:39.427Z,3.43
2022-12-26T00:08:08.025Z,4.10
2022-12-26T00:10:34.894Z,3.80
2022-12-26T00:13:40.307Z,4.37
2022-12-26T00:15:48.475Z,4.00
2022-12-26T00:18:15.315Z,3.70
2022-12-26T00:20:42.079Z,4.20
2022-12-26T00:23:09.203Z,4.03
2022-12-26T00:25:36.018Z,3.80
2022-12-26T00:28:02.835Z,3.60
2022-12-26T00:30:29.691Z,3.70
2022-12-26T00:32:56.456Z,4.50
2022-12-26T00:35:23.586Z,3.97
2022-12-26T00:37:50.360Z,4.20
2022-12-26T00:40:18.831Z,4.70
2022-12-26T00:42:45.643Z,4.47
2022-12-26T00:45:12.567Z,4.53
2022-12-26T00:47:39.423Z,4.37
2022-12-26T00:50:13.193Z,4.30
2022-12-26T00:52:42.505Z,4.20
2022-12-26T00:55:10.176Z,4.07
2022-12-26T00:57:37.075Z,4.00
2022-12-26T01:00:05.280Z,4.03
2022-12-26T01:02:37.943Z,3.87
2022-12-26T01:05:08.996Z,3.70
2022-12-26T01:08:21.031Z,3.80
2022-12-26T01:10:24.363Z,3.73
2022-12-26T01:12:51.622Z,4.13
2022-12-26T01:15:18.730Z,3.60
2022-12-26T01:17:46.286Z,3.83
2022-12-26T01:20:13.417Z,3.70
2022-12-26T01:22:40.233Z,3.87
2022-12-26T01:25:07.743Z,3.57
2022-12-26T01:27:34.600Z,3.70
2022-12-26T01:30:01.468Z,3.83
2022-12-26T01:32:28.291Z,3.60
2022-12-26T01:34:55.678Z,3.67
2022-12-26T01:37:23.499Z,3.70
2022-12-26T01:39:51.356Z,3.40
2022-12-26T01:42:22.275Z,3.37
2022-12-26T01:44:58.121Z,3.07
2022-12-26T01:47:49.079Z,3.90
2022-12-26T01:50:30.077Z,3.20
2022-12-26T01:53:18.482Z,3.70
2022-12-26T01:55:50.680Z,3.60
2022-12-26T01:58:24.180Z,3.47
2022-12-26T02:00:51.812Z,3.40
2022-12-26T02:03:37.793Z,3.20
2022-12-26T02:06:05.075Z,3.50
2022-12-26T02:08:35.919Z,3.83
2022-12-26T02:11:08.902Z,3.17
2022-12-26T02:13:38.175Z,3.43
2022-12-26T02:16:07.202Z,3.43
2022-12-26T02:18:34.031Z,3.43
2022-12-26T02:21:19.405Z,3.50
2022-12-26T02:24:01.263Z,3.00
2022-12-26T02:26:49.219Z,3.40
2022-12-26T02:29:15.970Z,3.40
2022-12-26T02:31:53.604Z,2.90
2022-12-26T02:34:43.477Z,3.27
2022-12-26T02:37:57.385Z,3.40
2022-12-26T02:40:42.739Z,3.23
2022-12-26T02:43:23.106Z,3.10
2022-12-26T02:46:22.582Z,3.60
2022-12-26T02:49:04.397Z,3.80
2022-12-26T02:52:31.535Z,3.30
2022-12-26T02:55:25.636Z,3.50
2022-12-26T02:58:44.935Z,3.70
2022-12-26T03:01:42.930Z,3.50
2022-12-26T03:04:32.497Z,3.20
2022-12-26T03:07:22.547Z,3.10
2022-12-26T03:10:09.952Z,3.03
2022-12-26T03:13:05.818Z,3.27
2022-12-26T03:15:56.877Z,3.37
2022-12-26T03:18:56.853Z,3.23
2022-12-26T03:21:18.137Z,3.27
2022-12-26T03:23:47.569Z,3.40
2022-12-26T03:26:41.153Z,4.23
2022-12-26T03:29:32.667Z,3.50
2022-12-26T03:32:02.360Z,3.33
2022-12-26T03:34:29.618Z,3.33
2022-12-26T03:37:25.057Z,3.13
2022-12-26T03:40:58.360Z,3.00
2022-12-26T03:43:55.938Z,3.60
2022-12-26T03:46:59.044Z,3.17
2022-12-26T03:49:51.956Z,3.00
2022-12-26T03:52:46.893Z,2.90
2022-12-26T03:55:42.792Z,3.10
2022-12-26T03:58:54.644Z,3.00
2022-12-26T04:01:44.394Z,3.07
2022-12-26T04:04:33.992Z,3.33
2022-12-26T04:07:30.119Z,4.30
2022-12-26T04:11:01.525Z,3.47
2022-12-26T04:14:15.748Z,3.43
2022-12-26T04:17:09.900Z,3.50
2022-12-26T04:20:23.331Z,3.33
2022-12-26T04:23:23.667Z,3.07
2022-12-26T04:26:17.572Z,3.13
2022-12-26T04:29:03.359Z,3.23
2022-12-26T04:31:57.456Z,3.17
2022-12-26T04:34:56.584Z,3.43
2022-12-26T04:37:44.865Z,3.13
2022-12-26T04:40:39.073Z,3.13
2022-12-26T04:43:49.477Z,3.30
2022-12-26T04:46:16.060Z,3.20
2022-12-26T04:49:03.986Z,3.10
2022-12-26T04:51:30.749Z,3.40
2022-12-26T04:53:57.482Z,3.30
2022-12-26T04:56:24.242Z,3.37
2022-12-26T04:58:52.025Z,3.40
2022-12-26T05:01:37.609Z,3.47
2022-12-26T05:04:22.857Z,3.00
2022-12-26T05:07:08.765Z,3.30
2022-12-26T05:09:35.776Z,3.07
2022-12-26T05:12:08.225Z,2.90
2022-12-26T05:14:36.245Z,3.17
2022-12-26T05:17:23.171Z,3.20
2022-12-26T05:20:08.414Z,2.90
2022-12-26T05:22:57.939Z,3.80
2022-12-26T05:25:47.255Z,3.43
2022-12-26T05:28:34.121Z,3.30
2022-12-26T05:31:02.176Z,3.00
2022-12-26T05:33:47.457Z,2.90
2022-12-26T05:36:16.415Z,3.07
2022-12-26T05:38:43.208Z,3.10
2022-12-26T05:41:09.965Z,3.50
2022-12-26T05:43:36.715Z,3.40
2022-12-26T05:46:03.774Z,3.10
2022-12-26T05:48:30.665Z,3.37
2022-12-26T05:51:04.561Z,3.57
2022-12-26T05:53:32.501Z,3.47
2022-12-26T05:56:14.256Z,3.00
2022-12-26T05:58:41.969Z,3.30
2022-12-26T06:01:14.744Z,3.17
2022-12-26T06:03:45.693Z,3.40
2022-12-26T06:06:12.744Z,3.07
2022-12-26T06:08:41.125Z,3.37
2022-12-26T06:11:10.879Z,3.27
2022-12-26T06:13:38.342Z,3.20
2022-12-26T06:16:11.484Z,3.33
2022-12-26T06:18:38.775Z,2.90
2022-12-26T06:21:14.371Z,3.10
2022-12-26T06:23:43.099Z,2.77
2022-12-26T06:26:12.497Z,3.07
2022-12-26T06:28:41.000Z,3.57
2022-12-26T06:31:14.660Z,3.23
2022-12-26T06:33:42.145Z,3.13
2022-12-26T06:36:14.767Z,3.17
2022-12-26T06:38:42.158Z,3.60
2022-12-26T06:41:11.350Z,3.17
2022-12-26T06:43:38.504Z,3.10
2022-12-26T06:46:06.399Z,3.40
2022-12-26T06:48:39.174Z,3.10
2022-12-26T06:51:09.721Z,3.10
2022-12-26T06:53:36.667Z,3.03
2022-12-26T06:56:24.378Z,3.30
2022-12-26T06:59:03.878Z,3.50
2022-12-26T07:01:33.333Z,3.13
2022-12-26T07:04:00.929Z,3.27
2022-12-26T07:06:36.112Z,3.13
2022-12-26T07:09:06.755Z,2.93
2022-12-26T07:11:37.127Z,2.83
2022-12-26T07:14:04.772Z,3.10
2022-12-26T07:16:33.905Z,3.10
2022-12-26T07:19:00.854Z,2.93
2022-12-26T07:21:28.002Z,2.90
2022-12-26T07:23:55.246Z,2.97
2022-12-26T07:26:23.427Z,3.00
2022-12-26T07:28:56.755Z,3.10
2022-12-26T07:31:25.152Z,2.83
2022-12-26T07:33:54.541Z,3.00
2022-12-26T07:36:22.235Z,2.90
2022-12-26T07:38:49.062Z,3.20
2022-12-26T07:41:34.357Z,3.00
2022-12-26T07:44:01.506Z,3.00
2022-12-26T07:46:28.360Z,2.97
2022-12-26T07:48:55.225Z,3.43
2022-12-26T07:51:22.296Z,3.20
2022-12-26T07:53:49.145Z,3.10
2022-12-26T07:56:16.268Z,3.30
2022-12-26T07:58:43.079Z,2.93
2022-12-26T08:01:10.213Z,3.30
2022-12-26T08:03:37.260Z,3.40
2022-12-26T08:06:04.278Z,3.60
2022-12-26T08:08:31.324Z,3.50
2022-12-26T08:11:02.851Z,3.77
2022-12-26T08:13:29.794Z,3.40
2022-12-26T08:15:56.834Z,3.60
2022-12-26T08:18:24.456Z,3.77
2022-12-26T08:20:51.954Z,4.00
2022-12-26T08:23:18.853Z,3.70
2022-12-26T08:25:45.642Z,3.13
2022-12-26T08:28:12.407Z,4.00
2022-12-26T08:30:41.188Z,3.70
2022-12-26T08:33:09.574Z,3.83
2022-12-26T08:35:38.118Z,3.93
2022-12-26T08:38:05.670Z,4.13
2022-12-26T08:40:43.160Z,3.83
2022-12-26T08:43:31.036Z,3.63
2022-12-26T08:45:59.169Z,4.20
2022-12-26T08:48:26.143Z,4.37
2022-12-26T08:51:08.516Z,4.37
2022-12-26T08:53:37.281Z,4.30
2022-12-26T08:56:06.214Z,4.50
2022-12-26T08:58:33.923Z,4.40
2022-12-26T09:01:07.994Z,4.73
2022-12-26T09:03:34.912Z,4.63
2022-12-26T09:06:05.929Z,4.80
2022-12-26T09:08:35.017Z,4.90
2022-12-26T09:11:06.298Z,5.30
2022-12-26T09:13:33.983Z,5.53
2022-12-26T09:16:25.178Z,5.13
2022-12-26T09:18:59.714Z,5.57
2022-12-26T09:21:27.491Z,5.13
2022-12-26T09:23:59.223Z,5.40
2022-12-26T09:26:26.773Z,5.53
2022-12-26T09:28:54.185Z,6.03
2022-12-26T09:31:24.642Z,5.63
2022-12-26T09:33:53.450Z,6.67
2022-12-26T09:36:22.693Z,6.27
2022-12-26T09:38:50.680Z,6.10
2022-12-26T09:41:39.449Z,6.33
2022-12-26T09:44:28.003Z,7.13
2022-12-26T09:46:57.874Z,6.90
2022-12-26T09:49:31.885Z,7.77
2022-12-26T09:52:17.895Z,7.80
2022-12-26T09:54:56.288Z,6.80
2022-12-26T09:57:41.507Z,7.00
2022-12-26T10:00:18.540Z,7.57
2022-12-26T10:02:51.635Z,6.90
2022-12-26T10:05:20.426Z,7.20
2022-12-26T10:07:53.967Z,7.20
2022-12-26T10:10:27.939Z,7.77
2022-12-26T10:13:17.414Z,8.10
2022-12-26T10:15:55.036Z,9.40
2022-12-26T10:19:04.390Z,9.50
2022-12-26T10:22:09.499Z,9.80
2022-12-26T10:24:39.037Z,8.97
2022-12-26T10:27:18.353Z,9.07
2022-12-26T10:30:05.468Z,9.07
2022-12-26T10:32:39.773Z,9.90
2022-12-26T10:35:34.492Z,9.63
2022-12-26T10:38:27.937Z,9.13
2022-12-26T10:41:00.641Z,8.90
2022-12-26T10:43:31.540Z,7.57
2022-12-26T10:45:58.337Z,7.20
2022-12-26T10:48:28.276Z,7.20
2022-12-26T10:50:55.929Z,7.13
2022-12-26T10:53:23.403Z,7.70
2022-12-26T10:55:50.310Z,8.13
2022-12-26T10:58:29.271Z,7.90
2022-12-26T11:00:56.085Z,8.20
2022-12-26T11:03:23.035Z,7.43
2022-12-26T11:06:11.147Z,7.07
2022-12-26T11:08:46.262Z,6.57
2022-12-26T11:11:21.043Z,5.23
2022-12-26T11:13:57.647Z,5.47
2022-12-26T11:16:35.579Z,4.43
2022-12-26T11:19:03.607Z,4.93
2022-12-26T11:21:32.349Z,4.30
2022-12-26T11:24:08.404Z,4.80
2022-12-26T11:26:35.878Z,4.33
2022-12-26T11:29:20.761Z,4.20
2022-12-26T11:32:01.895Z,5.10
2022-12-26T11:34:38.523Z,6.23
2022-12-26T11:37:06.737Z,7.80
2022-12-26T11:39:38.048Z,9.60
2022-12-26T11:42:12.754Z,15.43
2022-12-26T11:44:44.977Z,14.07
2022-12-26T11:47:14.321Z,13.17
2022-12-26T11:50:05.882Z,13.13
2022-12-26T11:52:52.976Z,11.97
2022-12-26T11:55:22.949Z,10.63
2022-12-26T11:58:08.460Z,9.23
2022-12-26T12:00:54.366Z,7.50
2022-12-26T12:03:32.305Z,7.10
2022-12-26T12:05:59.060Z,6.03
2022-12-26T12:08:44.815Z,5.83
2022-12-26T12:11:20.646Z,5.70
2022-12-26T12:14:05.578Z,5.37
2022-12-26T12:16:43.225Z,5.33
2022-12-26T12:19:21.229Z,5.53
2022-12-26T12:22:20.213Z,6.70
2022-12-26T12:25:06.317Z,7.63
2022-12-26T12:28:00.817Z,7.57
2022-12-26T12:30:55.117Z,7.60
2022-12-26T12:33:54.223Z,6.87
2022-12-26T12:36:44.401Z,5.47
2022-12-26T12:39:15.997Z,5.17
2022-12-26T12:42:23.532Z,4.17
2022-12-26T12:45:27.041Z,4.10
2022-12-26T12:48:27.246Z,4.40
2022-12-26T12:51:23.001Z,4.03
2022-12-26T12:54:06.311Z,3.40
2022-12-26T12:56:49.595Z,3.20
2022-12-26T12:59:24.196Z,3.13
2022-12-26T13:01:56.204Z,3.10
2022-12-26T13:04:26.998Z,3.10
2022-12-26T13:07:02.329Z,2.90
2022-12-26T13:09:46.327Z,2.80
2022-12-26T13:12:22.232Z,3.20
2022-12-26T13:15:00.367Z,3.30
2022-12-26T13:17:41.596Z,3.23
2022-12-26T13:20:25.050Z,2.93
2022-12-26T13:23:15.573Z,3.20
2022-12-26T13:25:47.235Z,3.27
2022-12-26T13:28:21.340Z,3.00
2022-12-26T13:30:56.466Z,3.00
2022-12-26T13:33:23.778Z,3.10
2022-12-26T13:36:02.752Z,2.57
2022-12-26T13:38:54.355Z,2.50
2022-12-26T13:41:40.099Z,2.47
2022-12-26T13:44:23.864Z,2.30
2022-12-26T13:46:50.651Z,1.90
2022-12-26T13:49:37.211Z,2.07
2022-12-26T13:52:16.045Z,1.73
2022-12-26T13:54:50.277Z,1.90
2022-12-26T13:57:44.567Z,1.80
2022-12-26T14:00:36.586Z,1.87
2022-12-26T14:03:32.926Z,1.90
2022-12-26T14:06:43.885Z,2.00
2022-12-26T14:09:34.096Z,1.70
2022-12-26T14:12:19.611Z,1.83
2022-12-26T14:14:54.046Z,1.87
2022-12-26T14:17:33.440Z,1.50
2022-12-26T14:20:20.381Z,1.40
2022-12-26T14:23:20.671Z,1.30
2022-12-26T14:26:02.306Z,1.30
2022-12-26T14:28:44.211Z,1.00
2022-12-26T14:31:23.116Z,1.20
2022-12-26T14:34:04.217Z,1.20
2022-12-26T14:36:47.229Z,1.10
2022-12-26T14:39:41.620Z,1.13
2022-12-26T14:42:26.894Z,1.13
2022-12-26T14:44:59.207Z,1.10
2022-12-26T14:47:35.366Z,1.30
2022-12-26T14:50:32.800Z,1.27
2022-12-26T14:53:24.447Z,1.10
2022-12-26T14:55:54.058Z,1.10
2022-12-26T14:58:38.973Z,1.30
2022-12-26T15:01:12.886Z,1.10
2022-12-26T15:03:54.386Z,1.23
2022-12-26T15:06:21.198Z,1.23
2022-12-26T15:08:57.041Z,1.17
2022-12-26T15:11:51.934Z,1.40
2022-12-26T15:14:39.826Z,1.30
2022-12-26T15:17:12.481Z,1.30
2022-12-26T15:19:55.746Z,1.30
2022-12-26T15:22:57.692Z,1.23
2022-12-26T15:25:53.915Z,1.47
2022-12-26T15:28:26.824Z,1.53
2022-12-26T15:31:18.267Z,1.60
2022-12-26T15:34:28.671Z,1.80
2022-12-26T15:37:24.543Z,1.90
2022-12-26T15:40:08.153Z,2.00
2022-12-26T15:42:58.797Z,1.90
2022-12-26T15:45:47.119Z,2.10
2022-12-26T15:48:38.569Z,1.90
2022-12-26T15:51:13.858Z,2.00
2022-12-26T15:54:16.471Z,2.40
2022-12-26T15:56:52.255Z,2.20
2022-12-26T15:59:31.264Z,2.10
2022-12-26T16:01:58.504Z,2.30
2022-12-26T16:04:35.869Z,2.70
2022-12-26T16:07:40.810Z,2.80
2022-12-26T16:10:30.147Z,2.57
2022-12-26T16:13:05.921Z,2.83
2022-12-26T16:15:33.643Z,2.83
2022-12-26T16:18:26.663Z,3.53
2022-12-26T16:21:15.687Z,3.20
2022-12-26T16:23:44.308Z,2.90
2022-12-26T16:26:40.558Z,2.73
2022-12-26T16:29:07.880Z,2.60
2022-12-26T16:31:34.707Z,2.53
2022-12-26T16:34:01.662Z,2.17
2022-12-26T16:36:31.999Z,2.57
2022-12-26T16:38:58.774Z,2.40
2022-12-26T16:41:28.265Z,2.50
2022-12-26T16:43:58.137Z,3.00
2022-12-26T16:46:28.826Z,2.73
2022-12-26T16:48:59.139Z,2.87
2022-12-26T16:51:37.940Z,3.03
2022-12-26T16:54:19.957Z,2.70
2022-12-26T16:57:04.267Z,3.03
2022-12-26T16:59:51.878Z,2.73
2022-12-26T17:02:29.679Z,2.60
2022-12-26T17:05:07.722Z,2.60
2022-12-26T17:07:39.237Z,2.07
2022-12-26T17:10:12.235Z,2.00
2022-12-26T17:12:40.743Z,1.70
2022-12-26T17:15:08.348Z,1.77
2022-12-26T17:17:38.005Z,2.00
2022-12-26T17:20:23.183Z,1.57
2022-12-26T17:22:58.155Z,1.53
2022-12-26T17:25:30.422Z,1.30
2022-12-26T17:28:09.710Z,1.63
2022-12-26T17:30:54.922Z,1.47
2022-12-26T17:33:28.036Z,1.80
2022-12-26T17:38:51.057Z,1.50
2022-12-26T17:41:18.346Z,1.80
2022-12-26T17:43:46.554Z,1.70
2022-12-26T17:46:16.077Z,1.70
2022-12-26T17:48:43.507Z,1.70
2022-12-26T17:51:17.756Z,1.93
2022-12-26T17:53:50.182Z,1.47
2022-12-26T17:56:24.189Z,1.23
2022-12-26T17:58:51.035Z,1.60
2022-12-26T18:01:21.533Z,1.33
2022-12-26T18:03:50.051Z,1.50
2022-12-26T18:06:17.525Z,1.40
2022-12-26T18:08:44.831Z,1.20
2022-12-26T18:11:13.943Z,1.10
2022-12-26T18:13:41.660Z,1.40
2022-12-26T18:16:15.277Z,1.43
2022-12-26T18:18:44.505Z,1.40
2022-12-26T18:21:13.956Z,1.50
2022-12-26T18:23:41.404Z,1.17
2022-12-26T18:26:24.070Z,1.30
2022-12-26T18:28:51.878Z,1.30
2022-12-26T18:31:18.787Z,1.33
2022-12-26T18:33:45.628Z,1.30
2022-12-26T18:36:14.209Z,1.77
2022-12-26T18:38:41.529Z,2.10
2022-12-26T18:41:13.940Z,2.50
2022-12-26T18:43:40.818Z,3.00
2022-12-26T18:46:18.720Z,2.20
2022-12-26T18:48:46.240Z,2.10
2022-12-26T18:51:13.242Z,1.80
2022-12-26T18:53:40.106Z,1.80
2022-12-26T18:56:07.569Z,1.80
2022-12-26T18:58:34.368Z,1.70
2022-12-26T19:01:03.450Z,1.90
2022-12-26T19:03:30.290Z,1.83
2022-12-26T19:05:57.119Z,1.73
2022-12-26T19:08:24.874Z,1.73
2022-12-26T19:10:51.689Z,1.70
2022-12-26T19:13:18.480Z,2.07
2022-12-26T19:15:47.010Z,1.87
2022-12-26T19:18:13.961Z,1.60
2022-12-26T19:20:44.399Z,1.50
2022-12-26T19:23:11.830Z,1.43
2022-12-26T19:25:38.689Z,1.60
2022-12-26T19:28:06.599Z,1.40
2022-12-26T19:30:38.497Z,1.33
2022-12-26T19:33:06.269Z,1.23
2022-12-26T19:35:33.187Z,1.10
2022-12-26T19:38:00.138Z,1.03
2022-12-26T19:40:26.923Z,1.10
2022-12-26T19:42:53.818Z,1.20
2022-12-26T19:45:21.293Z,1.17
2022-12-26T19:47:48.113Z,1.10
2022-12-26T19:50:15.143Z,1.60
2022-12-26T19:52:41.993Z,1.40
2022-12-26T19:55:11.476Z,1.33
2022-12-26T19:57:38.334Z,1.20
2022-12-26T20:00:06.982Z,1.00
2022-12-26T20:02:39.141Z,1.10
2022-12-26T20:05:07.451Z,1.20
2022-12-26T20:07:34.443Z,1.70
2022-12-26T20:10:01.423Z,1.50
2022-12-26T20:12:28.435Z,1.33
2022-12-26T20:14:55.229Z,1.50
2022-12-26T20:17:22.374Z,1.40
2022-12-26T20:19:50.193Z,1.50
2022-12-26T20:22:17.040Z,1.80
2022-12-26T20:24:43.833Z,1.70
2022-12-26T20:27:10.827Z,1.70
2022-12-26T20:29:37.739Z,1.80
2022-12-26T20:32:04.596Z,1.90
2022-12-26T20:34:31.529Z,1.53
2022-12-26T20:36:58.432Z,2.07
2022-12-26T20:39:25.679Z,1.60
2022-12-26T20:41:52.676Z,1.47
2022-12-26T20:44:19.706Z,1.50
2022-12-26T20:46:47.225Z,1.40
2022-12-26T20:49:14.185Z,1.43
2022-12-26T20:51:42.692Z,1.40
2022-12-26T20:54:11.603Z,1.50
2022-12-26T20:56:39.590Z,1.60
2022-12-26T20:59:07.432Z,1.40
2022-12-26T21:01:35.550Z,1.30
2022-12-26T21:04:02.539Z,1.60
2022-12-26T21:06:32.005Z,1.67
2022-12-26T21:08:59.178Z,1.77
2022-12-26T21:11:26.035Z,1.77
2022-12-26T21:13:56.207Z,1.60
2022-12-26T21:16:31.329Z,1.73
2022-12-26T21:18:58.475Z,1.50
2022-12-26T21:21:37.168Z,1.70
2022-12-26T21:24:11.065Z,1.43
2022-12-26T21:26:39.930Z,2.40
2022-12-26T21:29:11.256Z,2.30
2022-12-26T21:31:38.659Z,1.70
2022-12-26T21:34:05.628Z,1.80
2022-12-26T21:36:33.883Z,1.73
2022-12-26T21:39:06.521Z,1.60
2022-12-26T21:41:33.727Z,1.40
2022-12-26T21:44:00.618Z,1.90
2022-12-26T21:46:27.669Z,1.63
2022-12-26T21:48:55.228Z,1.70
2022-12-26T21:51:28.819Z,1.73
2022-12-26T21:54:15.637Z,1.70
2022-12-26T21:56:42.463Z,1.70
2022-12-26T21:59:28.345Z,1.80
2022-12-26T22:01:55.333Z,1.70
2022-12-26T22:04:23.818Z,1.67
2022-12-26T22:06:51.524Z,1.80
2022-12-26T22:09:18.840Z,1.87
2022-12-26T22:12:04.647Z,1.80
2022-12-26T22:14:31.707Z,2.50
2022-12-26T22:16:58.533Z,2.07
2022-12-26T22:19:25.451Z,1.80
2022-12-26T22:21:55.482Z,1.80
2022-12-26T22:24:22.314Z,1.87
2022-12-26T22:26:49.742Z,1.70
2022-12-26T22:29:16.771Z,1.53
2022-12-26T22:31:43.738Z,1.60
2022-12-26T22:34:13.891Z,1.80
2022-12-26T22:36:41.175Z,1.50
2022-12-26T22:39:09.878Z,1.60
2022-12-26T22:41:37.466Z,1.50
2022-12-26T22:44:04.397Z,1.63
2022-12-26T22:46:31.269Z,1.40
2022-12-26T22:48:58.117Z,1.40
2022-12-26T22:51:25.972Z,1.40
2022-12-26T22:54:00.342Z,1.50
2022-12-26T22:56:27.900Z,1.77
2022-12-26T22:58:56.473Z,2.00
2022-12-26T23:01:23.754Z,1.93
2022-12-26T23:03:50.837Z,1.50
2022-12-26T23:06:29.990Z,1.40
2022-12-26T23:09:00.046Z,1.37
2022-12-26T23:11:34.455Z,1.63
2022-12-26T23:14:04.869Z,1.40
2022-12-26T23:16:50.408Z,1.70
2022-12-26T23:19:50.816Z,1.90
2022-12-26T23:22:17.882Z,1.70
2022-12-26T23:24:45.154Z,1.70
2022-12-26T23:27:30.678Z,1.40
2022-12-26T23:30:15.994Z,1.43
2022-12-26T23:32:44.496Z,1.40
2022-12-26T23:35:12.325Z,1.50
2022-12-26T23:37:40.696Z,1.53
2022-12-26T23:40:09.601Z,1.50
2022-12-26T23:42:37.261Z,1.50
2022-12-26T23:45:04.912Z,1.37
2022-12-26T23:47:32.183Z,1.40
2022-12-26T23:49:58.967Z,1.47
2022-12-26T23:52:30.571Z,1.30
2022-12-26T23:54:57.868Z,1.50
2022-12-26T23:57:25.225Z,1.17
2022-12-26T23:59:52.134Z,1.40
